You are listening to:
CYYZ Arrival - Toronto, Ontario, Canada

CYYZ 251800Z 14006KT 100V170 15SM BKN060 BKN250 30/19 A3002 RMK SC6CI1 CI TR SLP166 DENSITY ALT 2300FT

If stream doesn't start automatically press the play button
If stream stops then reload player then press play